Terminal Aerodrome Forecast
Issued by NWS

Current Version | Previous Version | Text Only | Print | Product List | Glossary On
Versions: 1 2 3 4 5 6 7 8 9 10 11 12 13 14 15 16 17 18 19 20 21 22 23 24 25 26 27
000
FTUS44 KFWD 210520
TAFGKY
TAF
KGKY 210520Z 2106/2206 16016KT P6SM BKN015
     FM211500 17015KT P6SM BKN020
     FM211900 17018KT P6SM BKN035 BKN100
     FM220500 20016KT P6SM VCTS BKN035CB=

USA.gov is the U.S. government's official web portal to all federal, state and local government web resources and services.